sensor_id;sensor_type;location;lat;lon;timestamp;P1;durP1;ratioP1;P2;durP2;ratioP2
13927;SDS011;7036;50.834;4.718;2023-06-22T00:00:07;2.00;;;1.47;;
13927;SDS011;7036;50.834;4.718;2023-06-22T00:02:34;1.93;;;1.60;;
13927;SDS011;7036;50.834;4.718;2023-06-22T00:05:02;1.87;;;1.50;;
13927;SDS011;7036;50.834;4.718;2023-06-22T00:07:29;2.90;;;1.47;;
13927;SDS011;7036;50.834;4.718;2023-06-22T00:09:59;1.90;;;1.47;;
13927;SDS011;7036;50.834;4.718;2023-06-22T00:12:27;1.80;;;1.70;;
13927;SDS011;7036;50.834;4.718;2023-06-22T00:14:54;2.80;;;1.60;;
13927;SDS011;7036;50.834;4.718;2023-06-22T00:17:22;1.87;;;1.53;;
13927;SDS011;7036;50.834;4.718;2023-06-22T00:19:49;1.47;;;1.37;;
13927;SDS011;7036;50.834;4.718;2023-06-22T00:22:17;1.70;;;1.43;;
13927;SDS011;7036;50.834;4.718;2023-06-22T00:24:43;1.60;;;1.50;;
13927;SDS011;7036;50.834;4.718;2023-06-22T00:27:10;1.83;;;1.60;;
13927;SDS011;7036;50.834;4.718;2023-06-22T00:29:38;2.00;;;1.47;;
13927;SDS011;7036;50.834;4.718;2023-06-22T00:32:04;2.20;;;1.53;;
13927;SDS011;7036;50.834;4.718;2023-06-22T00:34:31;3.10;;;1.77;;
13927;SDS011;7036;50.834;4.718;2023-06-22T00:36:58;1.90;;;1.40;;
13927;SDS011;7036;50.834;4.718;2023-06-22T00:39:25;2.43;;;1.50;;
13927;SDS011;7036;50.834;4.718;2023-06-22T00:41:53;1.53;;;1.43;;
13927;SDS011;7036;50.834;4.718;2023-06-22T00:44:20;1.20;;;1.10;;
13927;SDS011;7036;50.834;4.718;2023-06-22T00:46:46;1.73;;;1.30;;
13927;SDS011;7036;50.834;4.718;2023-06-22T00:49:13;1.73;;;1.50;;
13927;SDS011;7036;50.834;4.718;2023-06-22T00:51:40;1.30;;;1.20;;
13927;SDS011;7036;50.834;4.718;2023-06-22T00:54:07;1.60;;;1.10;;
13927;SDS011;7036;50.834;4.718;2023-06-22T00:56:34;1.60;;;1.20;;
13927;SDS011;7036;50.834;4.718;2023-06-22T00:59:01;1.57;;;1.40;;
13927;SDS011;7036;50.834;4.718;2023-06-22T01:01:28;1.47;;;1.37;;
13927;SDS011;7036;50.834;4.718;2023-06-22T01:03:55;1.27;;;1.17;;
13927;SDS011;7036;50.834;4.718;2023-06-22T01:06:26;1.67;;;1.40;;
13927;SDS011;7036;50.834;4.718;2023-06-22T01:09:15;1.67;;;1.57;;
13927;SDS011;7036;50.834;4.718;2023-06-22T01:11:52;1.40;;;1.30;;
13927;SDS011;7036;50.834;4.718;2023-06-22T01:14:23;1.37;;;1.27;;
13927;SDS011;7036;50.834;4.718;2023-06-22T01:16:48;2.00;;;1.50;;
13927;SDS011;7036;50.834;4.718;2023-06-22T01:22:05;1.60;;;1.50;;
13927;SDS011;7036;50.834;4.718;2023-06-22T01:24:41;1.37;;;1.27;;
13927;SDS011;7036;50.834;4.718;2023-06-22T01:29:44;1.23;;;1.07;;
13927;SDS011;7036;50.834;4.718;2023-06-22T01:32:11;2.03;;;1.70;;
13927;SDS011;7036;50.834;4.718;2023-06-22T01:34:38;2.90;;;1.30;;
13927;SDS011;7036;50.834;4.718;2023-06-22T01:37:04;1.40;;;1.30;;
13927;SDS011;7036;50.834;4.718;2023-06-22T01:39:31;1.40;;;1.30;;
13927;SDS011;7036;50.834;4.718;2023-06-22T01:41:58;1.60;;;1.43;;
13927;SDS011;7036;50.834;4.718;2023-06-22T01:44:25;1.60;;;1.37;;
13927;SDS011;7036;50.834;4.718;2023-06-22T01:46:52;1.60;;;1.50;;
13927;SDS011;7036;50.834;4.718;2023-06-22T01:49:19;1.53;;;1.40;;
13927;SDS011;7036;50.834;4.718;2023-06-22T01:51:46;1.60;;;1.10;;
13927;SDS011;7036;50.834;4.718;2023-06-22T01:54:13;1.40;;;1.30;;
13927;SDS011;7036;50.834;4.718;2023-06-22T01:56:40;1.70;;;1.30;;
13927;SDS011;7036;50.834;4.718;2023-06-22T01:59:25;1.53;;;1.43;;
13927;SDS011;7036;50.834;4.718;2023-06-22T02:01:57;1.37;;;1.27;;
13927;SDS011;7036;50.834;4.718;2023-06-22T02:04:24;1.60;;;1.50;;
13927;SDS011;7036;50.834;4.718;2023-06-22T02:06:49;1.33;;;1.23;;
13927;SDS011;7036;50.834;4.718;2023-06-22T02:09:17;1.60;;;1.20;;
13927;SDS011;7036;50.834;4.718;2023-06-22T02:11:43;1.50;;;1.40;;
13927;SDS011;7036;50.834;4.718;2023-06-22T02:14:09;1.60;;;1.50;;
13927;SDS011;7036;50.834;4.718;2023-06-22T02:16:36;2.13;;;1.27;;
13927;SDS011;7036;50.834;4.718;2023-06-22T02:19:03;1.40;;;1.30;;
13927;SDS011;7036;50.834;4.718;2023-06-22T02:21:30;1.40;;;1.20;;
13927;SDS011;7036;50.834;4.718;2023-06-22T02:23:57;1.53;;;1.33;;
13927;SDS011;7036;50.834;4.718;2023-06-22T02:26:24;1.50;;;1.40;;
13927;SDS011;7036;50.834;4.718;2023-06-22T02:28:53;1.53;;;1.43;;
13927;SDS011;7036;50.834;4.718;2023-06-22T02:31:20;1.47;;;1.33;;
13927;SDS011;7036;50.834;4.718;2023-06-22T02:33:49;1.80;;;1.67;;
13927;SDS011;7036;50.834;4.718;2023-06-22T02:36:16;2.33;;;1.20;;
13927;SDS011;7036;50.834;4.718;2023-06-22T02:38:43;1.60;;;1.50;;
13927;SDS011;7036;50.834;4.718;2023-06-22T02:41:10;1.17;;;1.07;;
13927;SDS011;7036;50.834;4.718;2023-06-22T02:43:36;1.50;;;1.40;;
13927;SDS011;7036;50.834;4.718;2023-06-22T02:46:04;1.60;;;1.23;;
13927;SDS011;7036;50.834;4.718;2023-06-22T02:48:31;1.33;;;1.17;;
13927;SDS011;7036;50.834;4.718;2023-06-22T02:50:58;1.70;;;1.60;;
13927;SDS011;7036;50.834;4.718;2023-06-22T02:53:25;1.83;;;1.50;;
13927;SDS011;7036;50.834;4.718;2023-06-22T02:55:52;2.10;;;1.30;;
13927;SDS011;7036;50.834;4.718;2023-06-22T02:58:19;1.47;;;1.33;;
13927;SDS011;7036;50.834;4.718;2023-06-22T03:00:45;1.80;;;1.37;;
13927;SDS011;7036;50.834;4.718;2023-06-22T03:03:12;1.47;;;1.37;;
13927;SDS011;7036;50.834;4.718;2023-06-22T03:05:39;1.20;;;1.10;;
13927;SDS011;7036;50.834;4.718;2023-06-22T03:08:06;1.80;;;1.27;;
13927;SDS011;7036;50.834;4.718;2023-06-22T03:10:33;1.47;;;1.37;;
13927;SDS011;7036;50.834;4.718;2023-06-22T03:13:00;1.60;;;1.40;;
13927;SDS011;7036;50.834;4.718;2023-06-22T03:15:27;3.47;;;1.53;;
13927;SDS011;7036;50.834;4.718;2023-06-22T03:17:54;1.77;;;1.67;;
13927;SDS011;7036;50.834;4.718;2023-06-22T03:20:21;1.37;;;1.27;;
13927;SDS011;7036;50.834;4.718;2023-06-22T03:22:48;2.07;;;1.50;;
13927;SDS011;7036;50.834;4.718;2023-06-22T03:25:15;2.00;;;1.30;;
13927;SDS011;7036;50.834;4.718;2023-06-22T03:27:42;1.53;;;1.20;;
13927;SDS011;7036;50.834;4.718;2023-06-22T03:30:09;1.70;;;1.60;;
13927;SDS011;7036;50.834;4.718;2023-06-22T03:32:35;1.73;;;1.40;;
13927;SDS011;7036;50.834;4.718;2023-06-22T03:35:03;1.50;;;1.40;;
13927;SDS011;7036;50.834;4.718;2023-06-22T03:37:30;1.40;;;1.30;;
13927;SDS011;7036;50.834;4.718;2023-06-22T03:39:57;1.50;;;1.40;;
13927;SDS011;7036;50.834;4.718;2023-06-22T03:42:24;1.60;;;1.20;;
13927;SDS011;7036;50.834;4.718;2023-06-22T03:44:50;1.60;;;1.27;;
13927;SDS011;7036;50.834;4.718;2023-06-22T03:47:17;1.77;;;1.40;;
13927;SDS011;7036;50.834;4.718;2023-06-22T03:49:44;1.77;;;1.37;;
13927;SDS011;7036;50.834;4.718;2023-06-22T03:52:11;1.60;;;1.47;;
13927;SDS011;7036;50.834;4.718;2023-06-22T03:54:38;1.40;;;1.30;;
13927;SDS011;7036;50.834;4.718;2023-06-22T03:57:05;2.07;;;1.17;;
13927;SDS011;7036;50.834;4.718;2023-06-22T03:59:32;1.57;;;1.40;;
13927;SDS011;7036;50.834;4.718;2023-06-22T04:01:59;1.30;;;1.20;;
13927;SDS011;7036;50.834;4.718;2023-06-22T04:04:26;1.40;;;1.30;;
13927;SDS011;7036;50.834;4.718;2023-06-22T04:06:53;1.73;;;1.30;;
13927;SDS011;7036;50.834;4.718;2023-06-22T04:09:20;3.30;;;1.60;;
13927;SDS011;7036;50.834;4.718;2023-06-22T04:11:47;1.30;;;1.10;;
13927;SDS011;7036;50.834;4.718;2023-06-22T04:14:14;1.47;;;1.00;;
13927;SDS011;7036;50.834;4.718;2023-06-22T04:16:41;1.80;;;1.70;;
13927;SDS011;7036;50.834;4.718;2023-06-22T04:19:08;1.63;;;1.43;;
13927;SDS011;7036;50.834;4.718;2023-06-22T04:21:35;1.47;;;1.37;;
13927;SDS011;7036;50.834;4.718;2023-06-22T04:24:01;1.30;;;1.20;;
13927;SDS011;7036;50.834;4.718;2023-06-22T04:26:28;1.30;;;1.20;;
13927;SDS011;7036;50.834;4.718;2023-06-22T04:28:55;1.40;;;1.30;;
13927;SDS011;7036;50.834;4.718;2023-06-22T04:31:22;2.00;;;1.60;;
13927;SDS011;7036;50.834;4.718;2023-06-22T04:33:49;1.47;;;1.20;;
13927;SDS011;7036;50.834;4.718;2023-06-22T04:36:16;2.07;;;1.37;;
13927;SDS011;7036;50.834;4.718;2023-06-22T04:38:43;1.30;;;1.10;;
13927;SDS011;7036;50.834;4.718;2023-06-22T04:41:10;1.53;;;1.43;;
13927;SDS011;7036;50.834;4.718;2023-06-22T04:43:37;2.30;;;1.73;;
13927;SDS011;7036;50.834;4.718;2023-06-22T04:46:04;1.50;;;1.40;;
13927;SDS011;7036;50.834;4.718;2023-06-22T04:48:31;1.13;;;1.03;;
13927;SDS011;7036;50.834;4.718;2023-06-22T04:51:01;1.33;;;1.17;;
13927;SDS011;7036;50.834;4.718;2023-06-22T04:53:27;1.00;;;1.00;;
13927;SDS011;7036;50.834;4.718;2023-06-22T04:55:54;2.17;;;1.57;;
13927;SDS011;7036;50.834;4.718;2023-06-22T04:58:21;1.43;;;1.30;;
13927;SDS011;7036;50.834;4.718;2023-06-22T05:00:48;3.70;;;1.40;;
13927;SDS011;7036;50.834;4.718;2023-06-22T05:03:15;1.63;;;1.40;;
13927;SDS011;7036;50.834;4.718;2023-06-22T05:05:42;1.73;;;1.63;;
13927;SDS011;7036;50.834;4.718;2023-06-22T05:08:09;1.30;;;1.17;;
13927;SDS011;7036;50.834;4.718;2023-06-22T05:10:36;1.53;;;1.43;;
13927;SDS011;7036;50.834;4.718;2023-06-22T05:13:03;1.40;;;1.30;;
13927;SDS011;7036;50.834;4.718;2023-06-22T05:15:30;1.53;;;1.33;;
13927;SDS011;7036;50.834;4.718;2023-06-22T05:17:58;1.70;;;1.60;;
13927;SDS011;7036;50.834;4.718;2023-06-22T05:20:24;1.60;;;1.50;;
13927;SDS011;7036;50.834;4.718;2023-06-22T05:22:51;1.50;;;1.27;;
13927;SDS011;7036;50.834;4.718;2023-06-22T05:25:18;1.43;;;1.33;;
13927;SDS011;7036;50.834;4.718;2023-06-22T05:27:45;1.60;;;1.50;;
13927;SDS011;7036;50.834;4.718;2023-06-22T05:30:12;1.63;;;1.53;;
13927;SDS011;7036;50.834;4.718;2023-06-22T05:32:39;1.67;;;1.57;;
13927;SDS011;7036;50.834;4.718;2023-06-22T05:35:06;1.57;;;1.47;;
13927;SDS011;7036;50.834;4.718;2023-06-22T05:37:33;2.03;;;1.40;;
13927;SDS011;7036;50.834;4.718;2023-06-22T05:40:01;2.17;;;1.50;;
13927;SDS011;7036;50.834;4.718;2023-06-22T05:42:28;2.17;;;1.53;;
13927;SDS011;7036;50.834;4.718;2023-06-22T05:44:54;1.43;;;1.33;;
13927;SDS011;7036;50.834;4.718;2023-06-22T05:47:21;1.77;;;1.47;;
13927;SDS011;7036;50.834;4.718;2023-06-22T05:49:48;2.30;;;1.67;;
13927;SDS011;7036;50.834;4.718;2023-06-22T05:52:15;1.97;;;1.50;;
13927;SDS011;7036;50.834;4.718;2023-06-22T05:54:42;1.50;;;1.40;;
13927;SDS011;7036;50.834;4.718;2023-06-22T05:57:09;1.60;;;1.30;;
13927;SDS011;7036;50.834;4.718;2023-06-22T05:59:36;1.93;;;1.47;;
13927;SDS011;7036;50.834;4.718;2023-06-22T06:02:03;2.07;;;1.63;;
13927;SDS011;7036;50.834;4.718;2023-06-22T06:04:30;1.83;;;1.63;;
13927;SDS011;7036;50.834;4.718;2023-06-22T06:06:57;2.30;;;1.70;;
13927;SDS011;7036;50.834;4.718;2023-06-22T06:09:23;1.70;;;1.60;;
13927;SDS011;7036;50.834;4.718;2023-06-22T06:11:50;1.87;;;1.70;;
13927;SDS011;7036;50.834;4.718;2023-06-22T06:14:17;1.90;;;1.53;;
13927;SDS011;7036;50.834;4.718;2023-06-22T06:16:44;1.70;;;1.60;;
13927;SDS011;7036;50.834;4.718;2023-06-22T06:19:11;1.50;;;1.40;;
13927;SDS011;7036;50.834;4.718;2023-06-22T06:21:38;1.60;;;1.50;;
13927;SDS011;7036;50.834;4.718;2023-06-22T06:24:08;2.00;;;1.80;;
13927;SDS011;7036;50.834;4.718;2023-06-22T06:26:35;1.53;;;1.43;;
13927;SDS011;7036;50.834;4.718;2023-06-22T06:29:03;1.73;;;1.63;;
13927;SDS011;7036;50.834;4.718;2023-06-22T06:31:29;1.70;;;1.50;;
13927;SDS011;7036;50.834;4.718;2023-06-22T06:33:56;1.53;;;1.43;;
13927;SDS011;7036;50.834;4.718;2023-06-22T06:36:23;2.20;;;1.63;;
13927;SDS011;7036;50.834;4.718;2023-06-22T06:38:50;1.77;;;1.57;;
13927;SDS011;7036;50.834;4.718;2023-06-22T06:41:17;1.47;;;1.37;;
13927;SDS011;7036;50.834;4.718;2023-06-22T06:43:43;2.10;;;1.60;;
13927;SDS011;7036;50.834;4.718;2023-06-22T06:46:10;2.60;;;1.40;;
13927;SDS011;7036;50.834;4.718;2023-06-22T06:48:37;1.40;;;1.27;;
13927;SDS011;7036;50.834;4.718;2023-06-22T06:51:04;1.53;;;1.40;;
13927;SDS011;7036;50.834;4.718;2023-06-22T06:53:31;2.53;;;1.80;;
13927;SDS011;7036;50.834;4.718;2023-06-22T06:55:58;1.60;;;1.50;;
13927;SDS011;7036;50.834;4.718;2023-06-22T06:58:25;1.73;;;1.30;;
13927;SDS011;7036;50.834;4.718;2023-06-22T07:00:52;1.77;;;1.50;;
13927;SDS011;7036;50.834;4.718;2023-06-22T07:03:19;1.67;;;1.57;;
13927;SDS011;7036;50.834;4.718;2023-06-22T07:05:46;1.70;;;1.60;;
13927;SDS011;7036;50.834;4.718;2023-06-22T07:08:13;1.60;;;1.50;;
13927;SDS011;7036;50.834;4.718;2023-06-22T07:10:39;1.40;;;1.30;;
13927;SDS011;7036;50.834;4.718;2023-06-22T07:13:07;1.63;;;1.47;;
13927;SDS011;7036;50.834;4.718;2023-06-22T07:15:34;1.60;;;1.43;;
13927;SDS011;7036;50.834;4.718;2023-06-22T07:18:01;2.07;;;1.80;;
13927;SDS011;7036;50.834;4.718;2023-06-22T07:20:28;2.10;;;1.50;;
13927;SDS011;7036;50.834;4.718;2023-06-22T07:22:55;2.20;;;2.00;;
13927;SDS011;7036;50.834;4.718;2023-06-22T07:25:23;4.07;;;3.30;;
13927;SDS011;7036;50.834;4.718;2023-06-22T07:27:57;3.77;;;3.47;;
13927;SDS011;7036;50.834;4.718;2023-06-22T07:30:23;5.97;;;4.20;;
13927;SDS011;7036;50.834;4.718;2023-06-22T07:32:51;4.90;;;4.30;;
13927;SDS011;7036;50.834;4.718;2023-06-22T07:35:18;5.87;;;4.63;;
13927;SDS011;7036;50.834;4.718;2023-06-22T07:37:45;6.43;;;4.43;;
13927;SDS011;7036;50.834;4.718;2023-06-22T07:40:12;5.93;;;4.07;;
13927;SDS011;7036;50.834;4.718;2023-06-22T07:42:39;5.37;;;4.00;;
13927;SDS011;7036;50.834;4.718;2023-06-22T07:45:07;5.00;;;4.30;;
13927;SDS011;7036;50.834;4.718;2023-06-22T07:47:34;6.03;;;4.57;;
13927;SDS011;7036;50.834;4.718;2023-06-22T07:50:01;5.67;;;4.60;;
13927;SDS011;7036;50.834;4.718;2023-06-22T07:52:28;6.80;;;3.70;;
13927;SDS011;7036;50.834;4.718;2023-06-22T07:54:55;7.60;;;3.70;;
13927;SDS011;7036;50.834;4.718;2023-06-22T07:57:22;4.77;;;3.50;;
13927;SDS011;7036;50.834;4.718;2023-06-22T07:59:49;4.13;;;3.13;;
13927;SDS011;7036;50.834;4.718;2023-06-22T08:02:16;5.70;;;3.73;;
13927;SDS011;7036;50.834;4.718;2023-06-22T08:04:44;4.90;;;3.47;;
13927;SDS011;7036;50.834;4.718;2023-06-22T08:07:10;5.20;;;3.30;;
13927;SDS011;7036;50.834;4.718;2023-06-22T08:09:38;6.73;;;2.80;;
13927;SDS011;7036;50.834;4.718;2023-06-22T08:12:05;3.43;;;3.07;;
13927;SDS011;7036;50.834;4.718;2023-06-22T08:14:32;5.20;;;3.47;;
13927;SDS011;7036;50.834;4.718;2023-06-22T08:16:59;4.10;;;3.37;;
13927;SDS011;7036;50.834;4.718;2023-06-22T08:19:26;4.23;;;3.57;;
13927;SDS011;7036;50.834;4.718;2023-06-22T08:21:53;11.97;;;4.40;;
13927;SDS011;7036;50.834;4.718;2023-06-22T08:24:19;7.13;;;5.00;;
13927;SDS011;7036;50.834;4.718;2023-06-22T08:26:47;8.03;;;3.77;;
13927;SDS011;7036;50.834;4.718;2023-06-22T08:29:14;7.77;;;5.00;;
13927;SDS011;7036;50.834;4.718;2023-06-22T08:31:41;8.37;;;4.33;;
13927;SDS011;7036;50.834;4.718;2023-06-22T08:34:08;12.93;;;4.33;;
13927;SDS011;7036;50.834;4.718;2023-06-22T08:36:34;7.27;;;4.73;;
13927;SDS011;7036;50.834;4.718;2023-06-22T08:39:01;5.00;;;3.97;;
13927;SDS011;7036;50.834;4.718;2023-06-22T08:41:29;14.23;;;3.50;;
13927;SDS011;7036;50.834;4.718;2023-06-22T08:43:55;11.53;;;3.70;;
13927;SDS011;7036;50.834;4.718;2023-06-22T08:46:22;5.57;;;4.23;;
13927;SDS011;7036;50.834;4.718;2023-06-22T08:48:49;5.00;;;3.90;;
13927;SDS011;7036;50.834;4.718;2023-06-22T08:51:16;10.73;;;4.43;;
13927;SDS011;7036;50.834;4.718;2023-06-22T08:53:43;6.70;;;4.33;;
13927;SDS011;7036;50.834;4.718;2023-06-22T08:56:10;10.77;;;4.30;;
13927;SDS011;7036;50.834;4.718;2023-06-22T08:58:37;6.03;;;3.87;;
13927;SDS011;7036;50.834;4.718;2023-06-22T09:01:04;10.80;;;5.00;;
13927;SDS011;7036;50.834;4.718;2023-06-22T09:03:31;9.23;;;4.97;;
13927;SDS011;7036;50.834;4.718;2023-06-22T09:05:58;9.53;;;5.00;;
13927;SDS011;7036;50.834;4.718;2023-06-22T09:08:25;6.07;;;4.43;;
13927;SDS011;7036;50.834;4.718;2023-06-22T09:10:52;9.33;;;4.57;;
13927;SDS011;7036;50.834;4.718;2023-06-22T09:13:19;7.03;;;4.67;;
13927;SDS011;7036;50.834;4.718;2023-06-22T09:15:46;7.70;;;4.80;;
13927;SDS011;7036;50.834;4.718;2023-06-22T09:18:13;10.00;;;4.80;;
13927;SDS011;7036;50.834;4.718;2023-06-22T09:20:40;7.10;;;5.37;;
13927;SDS011;7036;50.834;4.718;2023-06-22T09:23:07;7.57;;;4.83;;
13927;SDS011;7036;50.834;4.718;2023-06-22T09:25:33;6.93;;;4.13;;
13927;SDS011;7036;50.834;4.718;2023-06-22T09:28:00;7.47;;;4.47;;
13927;SDS011;7036;50.834;4.718;2023-06-22T09:30:27;10.10;;;4.50;;
13927;SDS011;7036;50.834;4.718;2023-06-22T09:32:54;9.57;;;5.07;;
13927;SDS011;7036;50.834;4.718;2023-06-22T09:35:21;6.83;;;3.73;;
13927;SDS011;7036;50.834;4.718;2023-06-22T09:37:48;5.93;;;4.33;;
13927;SDS011;7036;50.834;4.718;2023-06-22T09:40:15;6.63;;;4.00;;
13927;SDS011;7036;50.834;4.718;2023-06-22T09:42:42;5.47;;;3.87;;
13927;SDS011;7036;50.834;4.718;2023-06-22T09:45:09;8.83;;;3.70;;
13927;SDS011;7036;50.834;4.718;2023-06-22T09:47:37;5.27;;;4.07;;
13927;SDS011;7036;50.834;4.718;2023-06-22T09:50:04;5.90;;;3.93;;
13927;SDS011;7036;50.834;4.718;2023-06-22T09:52:31;6.57;;;4.33;;
13927;SDS011;7036;50.834;4.718;2023-06-22T09:54:58;4.77;;;3.57;;
13927;SDS011;7036;50.834;4.718;2023-06-22T09:57:25;8.40;;;3.73;;
13927;SDS011;7036;50.834;4.718;2023-06-22T09:59:52;6.63;;;4.50;;
13927;SDS011;7036;50.834;4.718;2023-06-22T10:02:19;9.23;;;5.67;;
13927;SDS011;7036;50.834;4.718;2023-06-22T10:04:46;8.50;;;5.73;;
13927;SDS011;7036;50.834;4.718;2023-06-22T10:07:13;10.93;;;6.17;;
13927;SDS011;7036;50.834;4.718;2023-06-22T10:09:40;9.37;;;6.77;;
13927;SDS011;7036;50.834;4.718;2023-06-22T10:12:07;9.97;;;6.40;;
13927;SDS011;7036;50.834;4.718;2023-06-22T10:14:34;11.83;;;6.47;;
13927;SDS011;7036;50.834;4.718;2023-06-22T10:17:01;12.20;;;7.40;;
13927;SDS011;7036;50.834;4.718;2023-06-22T10:19:28;10.90;;;6.33;;
13927;SDS011;7036;50.834;4.718;2023-06-22T10:21:55;17.40;;;6.40;;
13927;SDS011;7036;50.834;4.718;2023-06-22T10:24:22;11.80;;;6.53;;
13927;SDS011;7036;50.834;4.718;2023-06-22T10:26:49;9.97;;;5.80;;
13927;SDS011;7036;50.834;4.718;2023-06-22T10:29:16;13.37;;;6.00;;
13927;SDS011;7036;50.834;4.718;2023-06-22T10:31:43;11.53;;;5.40;;
13927;SDS011;7036;50.834;4.718;2023-06-22T10:34:10;6.03;;;4.77;;
13927;SDS011;7036;50.834;4.718;2023-06-22T10:36:37;8.10;;;4.80;;
13927;SDS011;7036;50.834;4.718;2023-06-22T10:39:04;7.07;;;5.10;;
13927;SDS011;7036;50.834;4.718;2023-06-22T10:41:31;11.83;;;4.80;;
13927;SDS011;7036;50.834;4.718;2023-06-22T10:43:58;7.23;;;5.00;;
13927;SDS011;7036;50.834;4.718;2023-06-22T10:46:25;5.17;;;3.97;;
13927;SDS011;7036;50.834;4.718;2023-06-22T10:48:52;11.53;;;5.27;;
13927;SDS011;7036;50.834;4.718;2023-06-22T10:51:19;7.60;;;5.33;;
13927;SDS011;7036;50.834;4.718;2023-06-22T10:53:46;7.77;;;5.43;;
13927;SDS011;7036;50.834;4.718;2023-06-22T10:56:13;11.17;;;6.40;;
13927;SDS011;7036;50.834;4.718;2023-06-22T10:58:40;7.87;;;6.73;;
13927;SDS011;7036;50.834;4.718;2023-06-22T11:01:07;11.17;;;7.57;;
13927;SDS011;7036;50.834;4.718;2023-06-22T11:03:34;10.30;;;6.37;;
13927;SDS011;7036;50.834;4.718;2023-06-22T11:06:01;9.73;;;7.17;;
13927;SDS011;7036;50.834;4.718;2023-06-22T11:08:28;11.97;;;7.63;;
13927;SDS011;7036;50.834;4.718;2023-06-22T11:10:55;11.07;;;7.53;;
13927;SDS011;7036;50.834;4.718;2023-06-22T11:13:22;10.47;;;7.47;;
13927;SDS011;7036;50.834;4.718;2023-06-22T11:15:49;11.63;;;8.87;;
13927;SDS011;7036;50.834;4.718;2023-06-22T11:18:16;8.67;;;7.53;;
13927;SDS011;7036;50.834;4.718;2023-06-22T11:20:43;10.37;;;8.20;;
13927;SDS011;7036;50.834;4.718;2023-06-22T11:23:10;9.47;;;8.47;;
13927;SDS011;7036;50.834;4.718;2023-06-22T11:25:37;8.37;;;7.50;;
13927;SDS011;7036;50.834;4.718;2023-06-22T11:28:04;11.03;;;7.73;;
13927;SDS011;7036;50.834;4.718;2023-06-22T11:30:31;12.17;;;8.87;;
13927;SDS011;7036;50.834;4.718;2023-06-22T11:32:58;13.97;;;8.30;;
13927;SDS011;7036;50.834;4.718;2023-06-22T11:35:25;8.90;;;7.97;;
13927;SDS011;7036;50.834;4.718;2023-06-22T11:37:52;9.37;;;7.97;;
13927;SDS011;7036;50.834;4.718;2023-06-22T11:40:19;10.93;;;8.67;;
13927;SDS011;7036;50.834;4.718;2023-06-22T11:42:46;9.50;;;8.60;;
13927;SDS011;7036;50.834;4.718;2023-06-22T11:45:14;12.03;;;9.27;;
13927;SDS011;7036;50.834;4.718;2023-06-22T11:47:41;9.43;;;8.47;;
13927;SDS011;7036;50.834;4.718;2023-06-22T11:50:08;10.33;;;9.33;;
13927;SDS011;7036;50.834;4.718;2023-06-22T11:52:35;17.57;;;9.40;;
13927;SDS011;7036;50.834;4.718;2023-06-22T11:55:02;11.53;;;9.63;;
13927;SDS011;7036;50.834;4.718;2023-06-22T11:57:29;13.27;;;9.83;;
13927;SDS011;7036;50.834;4.718;2023-06-22T11:59:56;10.23;;;9.27;;
13927;SDS011;7036;50.834;4.718;2023-06-22T12:02:23;9.67;;;8.73;;
13927;SDS011;7036;50.834;4.718;2023-06-22T12:04:50;11.30;;;9.33;;
13927;SDS011;7036;50.834;4.718;2023-06-22T12:07:17;10.13;;;9.27;;
13927;SDS011;7036;50.834;4.718;2023-06-22T12:09:44;9.93;;;9.03;;
13927;SDS011;7036;50.834;4.718;2023-06-22T12:12:10;13.27;;;9.63;;
13927;SDS011;7036;50.834;4.718;2023-06-22T12:14:37;11.23;;;10.03;;
13927;SDS011;7036;50.834;4.718;2023-06-22T12:17:04;11.53;;;9.47;;
13927;SDS011;7036;50.834;4.718;2023-06-22T12:19:31;12.07;;;9.67;;
13927;SDS011;7036;50.834;4.718;2023-06-22T12:21:58;13.33;;;10.40;;
13927;SDS011;7036;50.834;4.718;2023-06-22T12:24:25;10.87;;;9.87;;
13927;SDS011;7036;50.834;4.718;2023-06-22T12:26:52;12.33;;;9.50;;
13927;SDS011;7036;50.834;4.718;2023-06-22T12:29:19;11.00;;;9.90;;
13927;SDS011;7036;50.834;4.718;2023-06-22T12:31:46;13.43;;;10.87;;
13927;SDS011;7036;50.834;4.718;2023-06-22T12:34:13;11.20;;;10.03;;
13927;SDS011;7036;50.834;4.718;2023-06-22T12:36:40;11.80;;;10.07;;
13927;SDS011;7036;50.834;4.718;2023-06-22T12:39:07;13.30;;;10.93;;
13927;SDS011;7036;50.834;4.718;2023-06-22T12:41:35;12.27;;;11.07;;
13927;SDS011;7036;50.834;4.718;2023-06-22T12:44:01;12.33;;;11.13;;
13927;SDS011;7036;50.834;4.718;2023-06-22T12:46:28;12.67;;;9.70;;
13927;SDS011;7036;50.834;4.718;2023-06-22T12:48:55;13.03;;;11.63;;
13927;SDS011;7036;50.834;4.718;2023-06-22T12:51:22;14.30;;;10.97;;
13927;SDS011;7036;50.834;4.718;2023-06-22T12:53:49;11.43;;;10.13;;
13927;SDS011;7036;50.834;4.718;2023-06-22T12:56:16;12.20;;;11.00;;
13927;SDS011;7036;50.834;4.718;2023-06-22T12:58:43;16.83;;;10.67;;
13927;SDS011;7036;50.834;4.718;2023-06-22T13:01:10;12.17;;;10.97;;
13927;SDS011;7036;50.834;4.718;2023-06-22T13:03:37;12.43;;;10.63;;
13927;SDS011;7036;50.834;4.718;2023-06-22T13:06:04;12.67;;;10.90;;
13927;SDS011;7036;50.834;4.718;2023-06-22T13:08:31;12.33;;;11.13;;
13927;SDS011;7036;50.834;4.718;2023-06-22T13:10:58;12.20;;;10.63;;
13927;SDS011;7036;50.834;4.718;2023-06-22T13:13:25;12.70;;;11.37;;
13927;SDS011;7036;50.834;4.718;2023-06-22T13:15:52;14.13;;;11.67;;
13927;SDS011;7036;50.834;4.718;2023-06-22T13:18:18;15.63;;;11.97;;
13927;SDS011;7036;50.834;4.718;2023-06-22T13:20:45;12.37;;;11.07;;
13927;SDS011;7036;50.834;4.718;2023-06-22T13:23:12;12.17;;;10.87;;
13927;SDS011;7036;50.834;4.718;2023-06-22T13:25:39;14.10;;;10.83;;
13927;SDS011;7036;50.834;4.718;2023-06-22T13:28:06;14.10;;;10.97;;
13927;SDS011;7036;50.834;4.718;2023-06-22T13:30:33;11.80;;;10.60;;
13927;SDS011;7036;50.834;4.718;2023-06-22T13:33:00;13.27;;;11.03;;
13927;SDS011;7036;50.834;4.718;2023-06-22T13:35:27;12.80;;;11.13;;
13927;SDS011;7036;50.834;4.718;2023-06-22T13:37:54;10.10;;;8.87;;
13927;SDS011;7036;50.834;4.718;2023-06-22T13:40:21;10.37;;;9.37;;
13927;SDS011;7036;50.834;4.718;2023-06-22T13:42:48;15.03;;;10.17;;
13927;SDS011;7036;50.834;4.718;2023-06-22T13:45:15;11.70;;;8.30;;
13927;SDS011;7036;50.834;4.718;2023-06-22T13:47:42;10.27;;;8.67;;
13927;SDS011;7036;50.834;4.718;2023-06-22T13:50:09;11.30;;;8.20;;
13927;SDS011;7036;50.834;4.718;2023-06-22T13:52:36;8.97;;;8.07;;
13927;SDS011;7036;50.834;4.718;2023-06-22T13:55:03;8.30;;;7.50;;
13927;SDS011;7036;50.834;4.718;2023-06-22T13:57:29;8.30;;;7.57;;
13927;SDS011;7036;50.834;4.718;2023-06-22T13:59:56;9.30;;;7.50;;
13927;SDS011;7036;50.834;4.718;2023-06-22T14:02:23;7.83;;;7.17;;
13927;SDS011;7036;50.834;4.718;2023-06-22T14:04:50;7.80;;;6.87;;
13927;SDS011;7036;50.834;4.718;2023-06-22T14:07:17;8.67;;;7.07;;
13927;SDS011;7036;50.834;4.718;2023-06-22T14:09:44;11.27;;;7.43;;
13927;SDS011;7036;50.834;4.718;2023-06-22T14:12:11;8.93;;;6.77;;
13927;SDS011;7036;50.834;4.718;2023-06-22T14:14:38;9.93;;;6.73;;
13927;SDS011;7036;50.834;4.718;2023-06-22T14:17:05;7.03;;;6.33;;
13927;SDS011;7036;50.834;4.718;2023-06-22T14:19:32;10.10;;;6.20;;
13927;SDS011;7036;50.834;4.718;2023-06-22T14:22:02;6.50;;;5.77;;
13927;SDS011;7036;50.834;4.718;2023-06-22T14:24:26;6.83;;;6.07;;
13927;SDS011;7036;50.834;4.718;2023-06-22T14:26:53;7.67;;;6.57;;
13927;SDS011;7036;50.834;4.718;2023-06-22T14:29:20;7.47;;;5.83;;
13927;SDS011;7036;50.834;4.718;2023-06-22T14:31:47;5.50;;;5.00;;
13927;SDS011;7036;50.834;4.718;2023-06-22T14:34:14;6.47;;;5.53;;
13927;SDS011;7036;50.834;4.718;2023-06-22T14:36:41;8.03;;;5.63;;
13927;SDS011;7036;50.834;4.718;2023-06-22T14:39:08;6.03;;;5.43;;
13927;SDS011;7036;50.834;4.718;2023-06-22T14:41:34;7.97;;;5.30;;
13927;SDS011;7036;50.834;4.718;2023-06-22T14:44:01;5.87;;;4.90;;
13927;SDS011;7036;50.834;4.718;2023-06-22T14:46:28;6.53;;;5.20;;
13927;SDS011;7036;50.834;4.718;2023-06-22T14:48:55;9.43;;;5.43;;
13927;SDS011;7036;50.834;4.718;2023-06-22T14:51:22;5.80;;;5.20;;
13927;SDS011;7036;50.834;4.718;2023-06-22T14:53:49;7.63;;;5.73;;
13927;SDS011;7036;50.834;4.718;2023-06-22T14:56:16;8.37;;;6.50;;
13927;SDS011;7036;50.834;4.718;2023-06-22T14:58:43;6.80;;;5.87;;
13927;SDS011;7036;50.834;4.718;2023-06-22T15:01:14;7.03;;;5.73;;